Time;durP1;ratioP1;P1;durP2;ratioP2;P2;SDS_P1;SDS_P2;PMS_P1;PMS_P2;Temp;Humidity;BMP_temperature;BMP_pressure;BME280_temperature;BME280_humidity;BME280_pressure;Samples;Min_cycle;Max_cycle;Signal;HPM_P1;HPM_P2
2022/05/31 00:00:15;;;;;;;;;50.33;43.33;22.70;58.00;;;;;;4977902;28;9489;-78
2022/05/31 00:02:43;;;;;;;;;47.33;39.33;22.80;58.10;;;;;;4977645;28;8870;-79
2022/05/31 00:05:10;;;;;;;;;48.33;42.33;22.70;58.10;;;;;;4977719;28;9459;-78
2022/05/31 00:07:36;;;;;;;;;46.00;40.33;22.70;58.00;;;;;;4977678;28;8781;-78
2022/05/31 00:10:04;;;;;;;;;49.67;42.33;22.80;58.00;;;;;;4995453;28;8811;-77
2022/05/31 00:12:29;;;;;;;;;47.67;41.67;22.80;58.00;;;;;;4996587;28;8873;-78
2022/05/31 00:14:55;;;;;;;;;47.00;40.67;22.80;58.90;;;;;;5012160;28;8783;-76
2022/05/31 00:17:21;;;;;;;;;52.33;45.00;22.90;57.90;;;;;;4997111;28;8791;-78
2022/05/31 00:19:47;;;;;;;;;48.67;42.00;22.90;57.70;;;;;;4996690;28;9377;-77
2022/05/31 00:22:19;;;;;;;;;53.33;45.33;22.90;57.60;;;;;;4996699;28;8791;-77
2022/05/31 00:24:45;;;;;;;;;51.33;42.67;22.90;57.60;;;;;;4996817;28;8901;-78
2022/05/31 00:27:14;;;;;;;;;49.67;43.33;22.90;57.60;;;;;;4996848;28;8795;-78
2022/05/31 00:29:39;;;;;;;;;46.33;40.67;22.90;57.70;;;;;;4996868;28;8779;-77
2022/05/31 00:32:08;;;;;;;;;48.33;40.67;22.90;57.60;;;;;;4996755;28;9322;-76
2022/05/31 00:34:37;;;;;;;;;45.67;39.33;22.90;57.70;;;;;;4996759;28;8755;-78
2022/05/31 00:37:04;;;;;;;;;50.67;43.33;22.90;57.70;;;;;;5011785;28;8798;-77
2022/05/31 00:39:30;;;;;;;;;44.33;38.33;22.90;57.70;;;;;;4996607;28;8865;-78
2022/05/31 00:42:08;;;;;;;;;48.00;42.00;22.90;57.70;;;;;;4994574;28;8930;-77
2022/05/31 00:44:35;;;;;;;;;49.00;42.33;22.90;57.70;;;;;;4994850;28;8844;-77
2022/05/31 00:47:21;;;;;;;;;41.33;37.67;22.90;57.90;;;;;;4995457;28;8904;-78
2022/05/31 00:49:57;;;;;;;;;46.67;40.00;22.90;58.10;;;;;;4996251;28;8790;-77
2022/05/31 00:52:29;;;;;;;;;44.67;39.33;22.80;58.00;;;;;;4996249;28;8797;-77
2022/05/31 00:55:03;;;;;;;;;51.00;44.00;22.90;58.00;;;;;;4996087;28;8775;-77
2022/05/31 00:57:32;;;;;;;;;46.67;40.33;22.90;58.10;;;;;;4995157;28;8771;-77
2022/05/31 01:00:03;;;;;;;;;39.00;36.00;22.90;58.00;;;;;;4995920;28;8798;-77
2022/05/31 01:02:29;;;;;;;;;43.33;39.00;23.00;58.00;;;;;;4996409;28;8837;-76
2022/05/31 01:05:01;;;;;;;;;39.00;35.33;22.90;58.10;;;;;;4995855;28;8822;-78
2022/05/31 01:07:27;;;;;;;;;45.33;37.67;22.90;58.20;;;;;;4996043;28;8832;-77
2022/05/31 01:09:53;;;;;;;;;46.00;40.67;22.90;58.20;;;;;;4996120;28;9437;-76
2022/05/31 01:12:21;;;;;;;;;40.33;36.67;22.90;58.30;;;;;;4995640;28;8877;-77
2022/05/31 01:14:47;;;;;;;;;43.33;39.00;22.90;58.20;;;;;;4995797;28;8787;-77
2022/05/31 01:17:19;;;;;;;;;46.00;40.67;22.80;58.60;;;;;;4995772;28;8845;-77
2022/05/31 01:20:02;;;;;;;;;46.33;41.00;22.80;58.80;;;;;;4995739;28;8770;-80
2022/05/31 01:22:50;;;;;;;;;46.00;40.00;22.80;58.80;;;;;;4995829;28;8798;-77
2022/05/31 01:25:22;;;;;;;;;44.67;38.67;22.80;59.00;;;;;;5010915;28;9784;-77
2022/05/31 01:27:56;;;;;;;;;41.00;37.00;22.80;59.10;;;;;;4995924;28;8771;-77
2022/05/31 01:30:23;;;;;;;;;32.00;31.33;22.80;59.10;;;;;;4995791;28;8763;-78
2022/05/31 01:32:57;;;;;;;;;44.67;40.33;22.90;59.00;;;;;;4995560;28;8787;-77
2022/05/31 01:35:31;;;;;;;;;39.33;36.33;22.90;59.00;;;;;;4995747;28;8797;-77
2022/05/31 01:38:18;;;;;;;;;44.67;40.67;22.80;59.30;;;;;;4995731;28;9461;-77
2022/05/31 01:40:52;;;;;;;;;37.33;34.67;22.80;59.00;;;;;;4995700;28;8787;-77
2022/05/31 01:43:18;;;;;;;;;47.67;41.67;22.60;59.70;;;;;;4995963;28;8810;-78
2022/05/31 01:45:55;;;;;;;;;40.67;36.67;22.30;60.90;;;;;;4995262;28;8826;-77
2022/05/31 01:48:21;;;;;;;;;46.33;41.33;22.30;61.10;;;;;;4994109;28;8807;-78
2022/05/31 01:50:47;;;;;;;;;45.67;39.00;22.50;60.60;;;;;;4988464;28;8822;-77
2022/05/31 01:53:14;;;;;;;;;41.33;36.00;22.40;60.60;;;;;;4988387;28;8793;-77
2022/05/31 01:55:43;;;;;;;;;42.33;38.33;22.50;60.80;;;;;;4976058;28;8782;-77
2022/05/31 01:58:15;;;;;;;;;40.33;37.00;22.20;61.20;;;;;;4975876;28;8860;-77
2022/05/31 02:00:41;;;;;;;;;42.00;37.33;22.20;61.10;;;;;;4975837;28;8770;-77
2022/05/31 02:03:08;;;;;;;;;42.67;37.00;22.30;61.50;;;;;;4975942;28;8773;-78
2022/05/31 02:05:34;;;;;;;;;42.67;38.00;22.50;61.00;;;;;;4975693;28;8809;-79
2022/05/31 02:08:03;;;;;;;;;45.00;39.67;22.50;60.60;;;;;;4975696;28;8793;-78
2022/05/31 02:10:29;;;;;;;;;39.33;36.33;22.60;60.40;;;;;;4978703;28;8805;-77
2022/05/31 02:12:55;;;;;;;;;40.33;36.67;22.60;60.40;;;;;;4994390;28;8842;-77
2022/05/31 02:15:23;;;;;;;;;43.67;38.00;22.60;60.30;;;;;;4985597;28;8903;-77
2022/05/31 02:17:50;;;;;;;;;45.67;40.00;22.50;60.70;;;;;;4975513;28;8868;-76
2022/05/31 02:20:15;;;;;;;;;39.33;34.67;22.50;60.90;;;;;;4975595;28;8892;-78
2022/05/31 02:22:41;;;;;;;;;47.33;41.33;22.30;61.50;;;;;;4975605;28;8892;-77
2022/05/31 02:25:08;;;;;;;;;43.67;39.33;22.40;61.50;;;;;;4975352;28;8829;-76
2022/05/31 02:27:34;;;;;;;;;36.33;33.67;22.40;61.50;;;;;;4975479;28;8897;-76
2022/05/31 02:30:01;;;;;;;;;41.67;37.00;22.40;61.30;;;;;;4975447;28;8814;-77
2022/05/31 02:32:26;;;;;;;;;37.67;34.67;22.10;61.80;;;;;;4975687;28;8774;-77
2022/05/31 02:34:53;;;;;;;;;37.00;35.00;22.00;63.10;;;;;;4975493;28;8781;-78
2022/05/31 02:37:19;;;;;;;;;48.00;42.00;22.00;63.50;;;;;;4975436;28;8766;-77
2022/05/31 02:39:46;;;;;;;;;43.00;39.33;22.10;63.20;;;;;;4975538;28;9455;-76
2022/05/31 02:42:13;;;;;;;;;43.00;38.67;22.20;62.60;;;;;;4975433;28;8915;-77
2022/05/31 02:44:39;;;;;;;;;43.33;38.00;22.30;62.60;;;;;;4975346;28;8809;-77
2022/05/31 02:47:07;;;;;;;;;43.33;37.67;22.30;62.20;;;;;;4975280;28;8762;-79
2022/05/31 02:49:34;;;;;;;;;40.67;36.67;22.30;62.50;;;;;;4975515;28;8791;-78
2022/05/31 02:52:00;;;;;;;;;33.00;33.00;22.40;62.20;;;;;;4975211;28;8900;-78
2022/05/31 02:54:26;;;;;;;;;38.00;34.67;22.30;61.90;;;;;;4976518;28;8902;-78
2022/05/31 02:56:52;;;;;;;;;39.00;36.33;22.40;62.30;;;;;;4983786;28;8809;-77
2022/05/31 02:59:18;;;;;;;;;38.33;35.33;22.40;62.40;;;;;;4992526;28;8783;-78
2022/05/31 03:01:45;;;;;;;;;32.67;32.33;22.60;62.00;;;;;;4975156;28;8782;-78
2022/05/31 03:04:12;;;;;;;;;39.67;36.33;22.40;61.80;;;;;;4975006;28;8837;-79
2022/05/31 03:06:40;;;;;;;;;42.00;37.33;22.50;62.00;;;;;;4977291;28;8938;-78
2022/05/31 03:09:07;;;;;;;;;32.67;32.00;22.60;62.00;;;;;;4979386;28;8880;-77
2022/05/31 03:11:38;;;;;;;;;35.33;33.67;22.60;61.60;;;;;;4991053;28;9457;-77
2022/05/31 03:14:16;;;;;;;;;44.00;38.00;22.60;61.60;;;;;;4988729;28;8892;-77
2022/05/31 03:16:47;;;;;;;;;39.33;37.00;22.60;61.40;;;;;;4978577;28;8804;-77
2022/05/31 03:19:21;;;;;;;;;45.00;40.33;22.70;60.90;;;;;;4978867;28;8754;-77
2022/05/31 03:21:55;;;;;;;;;40.00;36.00;22.50;60.90;;;;;;4978726;28;8773;-77
2022/05/31 03:24:28;;;;;;;;;42.33;39.00;22.60;61.40;;;;;;4978506;28;8817;-76
2022/05/31 03:26:56;;;;;;;;;44.33;39.33;22.50;62.00;;;;;;4978424;28;8762;-76
2022/05/31 03:29:23;;;;;;;;;47.00;41.00;22.60;61.40;;;;;;4978391;28;8773;-77
2022/05/31 03:31:48;;;;;;;;;42.00;37.67;22.60;61.30;;;;;;4978360;28;8758;-76
2022/05/31 03:34:14;;;;;;;;;48.33;41.33;22.60;61.10;;;;;;4978309;28;8778;-77
2022/05/31 03:36:40;;;;;;;;;44.00;39.00;22.70;61.20;;;;;;4978205;28;8777;-78
2022/05/31 03:39:06;;;;;;;;;42.00;37.33;22.70;61.00;;;;;;4983863;28;8791;-78
2022/05/31 03:41:34;;;;;;;;;43.00;39.00;22.70;61.10;;;;;;4997721;28;8857;-76
2022/05/31 03:43:59;;;;;;;;;50.33;43.33;22.60;60.80;;;;;;4997638;28;8849;-76
2022/05/31 03:46:26;;;;;;;;;50.67;43.33;22.00;62.20;;;;;;4997568;28;8767;-77
2022/05/31 03:48:52;;;;;;;;;49.00;42.67;21.90;64.00;;;;;;4997792;28;8786;-77
2022/05/31 03:51:17;;;;;;;;;48.33;41.00;22.00;63.90;;;;;;4997651;28;8779;-77
2022/05/31 03:53:43;;;;;;;;;49.00;42.33;22.10;63.30;;;;;;4997410;28;9404;-78
2022/05/31 03:56:10;;;;;;;;;53.00;45.33;22.00;63.20;;;;;;4992868;28;8805;-77
2022/05/31 03:58:37;;;;;;;;;54.00;46.00;22.10;63.10;;;;;;4982036;28;8785;-78
2022/05/31 04:01:03;;;;;;;;;49.00;41.67;22.20;62.70;;;;;;4994016;28;8870;-77
2022/05/31 04:03:29;;;;;;;;;52.33;44.67;22.40;62.10;;;;;;4997360;28;8766;-77
2022/05/31 04:05:55;;;;;;;;;51.67;44.00;22.40;62.10;;;;;;4997204;28;8755;-77
2022/05/31 04:08:21;;;;;;;;;51.33;44.33;22.20;61.80;;;;;;4996358;28;8817;-77
2022/05/31 04:10:48;;;;;;;;;50.67;43.33;22.20;63.10;;;;;;4995067;28;8794;-78
2022/05/31 04:13:15;;;;;;;;;51.67;43.33;22.10;62.90;;;;;;4996904;28;8856;-77
2022/05/31 04:15:41;;;;;;;;;55.00;46.67;22.00;64.00;;;;;;4996883;28;8811;-77
2022/05/31 04:18:08;;;;;;;;;49.67;42.67;22.00;64.10;;;;;;4996998;28;8890;-78
2022/05/31 04:20:37;;;;;;;;;51.33;44.33;22.20;63.50;;;;;;5012181;28;8824;-77
2022/05/31 04:25:48;;;;;;;;;55.33;46.67;22.50;62.00;;;;;;4996848;28;8806;-78
2022/05/31 04:28:15;;;;;;;;;55.00;46.67;22.60;62.00;;;;;;4996813;28;8845;-77
2022/05/31 04:30:45;;;;;;;;;56.33;47.33;22.70;61.60;;;;;;4996961;28;8933;-77
2022/05/31 04:33:11;;;;;;;;;53.67;45.67;22.70;61.70;;;;;;4996691;28;8771;-78
2022/05/31 04:35:37;;;;;;;;;47.00;40.67;22.80;61.40;;;;;;4996649;28;8790;-77
2022/05/31 04:38:03;;;;;;;;;51.00;44.00;22.70;61.20;;;;;;4996617;28;8783;-78
2022/05/31 04:40:29;;;;;;;;;54.67;46.33;22.70;61.60;;;;;;4992096;28;8829;-78
2022/05/31 04:42:55;;;;;;;;;49.67;43.00;22.70;62.00;;;;;;4994751;28;8826;-78
2022/05/31 04:45:20;;;;;;;;;53.33;46.00;22.70;61.30;;;;;;4990106;28;8853;-77
2022/05/31 04:47:46;;;;;;;;;50.33;43.33;22.80;61.00;;;;;;4988716;28;8802;-78
2022/05/31 04:50:12;;;;;;;;;52.67;44.33;22.80;61.00;;;;;;4979611;28;9540;-77
2022/05/31 04:52:38;;;;;;;;;52.00;44.33;22.80;61.30;;;;;;4994099;28;8818;-76
2022/05/31 04:55:04;;;;;;;;;43.67;39.33;22.70;62.00;;;;;;4996315;28;8903;-79
2022/05/31 04:57:30;;;;;;;;;44.00;37.33;22.80;61.30;;;;;;4992956;28;8783;-79
2022/05/31 04:59:55;;;;;;;;;40.00;36.33;22.70;61.40;;;;;;4993824;28;8896;-77
2022/05/31 05:02:21;;;;;;;;;43.00;39.33;22.70;61.30;;;;;;4991014;28;8864;-76
2022/05/31 05:04:47;;;;;;;;;41.33;38.00;22.70;61.70;;;;;;4987467;28;8895;-75
2022/05/31 05:07:13;;;;;;;;;40.67;37.33;22.70;62.00;;;;;;4980639;28;8788;-77
2022/05/31 05:09:39;;;;;;;;;51.00;44.00;22.50;62.30;;;;;;4988922;28;8890;-75
2022/05/31 05:12:05;;;;;;;;;55.33;47.33;22.50;63.30;;;;;;4994724;28;8845;-79
2022/05/31 05:14:31;;;;;;;;;53.00;45.33;22.50;63.10;;;;;;4995448;28;8799;-76
2022/05/31 05:16:56;;;;;;;;;50.33;43.33;22.50;62.70;;;;;;4995742;28;8853;-76
2022/05/31 05:19:22;;;;;;;;;48.00;41.67;22.60;62.20;;;;;;4995819;28;9405;-76
2022/05/31 05:21:48;;;;;;;;;49.00;41.67;22.60;61.80;;;;;;4996328;28;8775;-78
2022/05/31 05:24:14;;;;;;;;;44.00;39.00;22.50;61.30;;;;;;4996093;28;8807;-78
2022/05/31 05:26:40;;;;;;;;;49.33;41.33;22.40;61.90;;;;;;4998240;28;8783;-76
2022/05/31 05:31:54;;;;;;;;;48.67;42.33;22.30;62.50;;;;;;4997850;28;8779;-77
2022/05/31 05:34:20;;;;;;;;;45.67;41.00;22.20;61.90;;;;;;4995945;28;8787;-75
2022/05/31 05:36:46;;;;;;;;;45.67;40.33;22.20;61.80;;;;;;5000684;28;8797;-75
2022/05/31 05:39:12;;;;;;;;;43.00;38.67;22.30;61.90;;;;;;4996501;28;8881;-77
2022/05/31 05:41:41;;;;;;;;;44.33;39.33;22.40;61.90;;;;;;4995930;28;8942;-76
2022/05/31 05:44:07;;;;;;;;;44.67;39.67;22.50;61.60;;;;;;4995540;28;8822;-76
2022/05/31 05:46:33;;;;;;;;;49.00;42.67;22.60;61.60;;;;;;5010865;28;8790;-75
2022/05/31 05:48:59;;;;;;;;;48.00;41.33;22.40;61.70;;;;;;4995822;28;8775;-76
2022/05/31 05:51:30;;;;;;;;;39.00;35.67;22.30;61.80;;;;;;4995291;28;8809;-75
2022/05/31 05:53:56;;;;;;;;;41.00;36.67;22.30;61.80;;;;;;4995184;28;9362;-75
2022/05/31 05:56:24;;;;;;;;;39.00;36.33;22.40;61.90;;;;;;4995339;28;8877;-73
2022/05/31 05:58:50;;;;;;;;;44.00;38.00;22.40;61.90;;;;;;4995414;28;8771;-77
2022/05/31 06:01:26;;;;;;;;;36.67;35.00;22.50;61.60;;;;;;4995060;28;8775;-75
2022/05/31 06:04:03;;;;;;;;;46.67;40.67;22.70;61.50;;;;;;4994987;28;8806;-75
2022/05/31 06:06:32;;;;;;;;;48.00;41.33;23.10;60.60;;;;;;4995357;28;8767;-76
2022/05/31 06:09:08;;;;;;;;;40.00;37.00;23.40;60.00;;;;;;4995291;28;8984;-77
2022/05/31 06:11:45;;;;;;;;;41.00;37.67;23.40;59.30;;;;;;4994670;28;8945;-74
2022/05/31 06:14:20;;;;;;;;;46.33;40.33;23.60;58.70;;;;;;4993341;28;8839;-76
2022/05/31 06:16:52;;;;;;;;;43.67;37.67;23.80;57.60;;;;;;4994943;28;8857;-74
2022/05/31 06:19:21;;;;;;;;;43.00;38.67;23.70;56.80;;;;;;4995133;28;8790;-74
2022/05/31 06:21:50;;;;;;;;;37.33;34.00;23.60;57.70;;;;;;4994762;28;8791;-74
2022/05/31 06:24:18;;;;;;;;;52.00;42.00;23.80;57.40;;;;;;4994690;28;8806;-74
2022/05/31 06:26:44;;;;;;;;;37.67;34.33;23.90;55.70;;;;;;4994943;28;8775;-75
2022/05/31 06:29:11;;;;;;;;;39.00;35.33;23.70;56.00;;;;;;4994812;28;9470;-75
2022/05/31 06:31:38;;;;;;;;;36.67;34.67;23.70;57.00;;;;;;4994778;28;8771;-75
2022/05/31 06:34:04;;;;;;;;;34.67;33.00;23.70;56.50;;;;;;4994985;28;9536;-75
2022/05/31 06:36:29;;;;;;;;;40.67;36.67;23.60;57.60;;;;;;4994669;28;8763;-75
2022/05/31 06:38:55;;;;;;;;;36.33;35.33;23.60;57.10;;;;;;4993251;28;8808;-74
2022/05/31 06:41:21;;;;;;;;;40.00;36.67;23.30;57.80;;;;;;4996489;28;8913;-74
2022/05/31 06:43:46;;;;;;;;;42.67;39.00;23.30;58.40;;;;;;4998541;28;8775;-75
2022/05/31 06:46:12;;;;;;;;;40.67;37.00;23.30;58.10;;;;;;4998615;28;8802;-76
2022/05/31 06:48:38;;;;;;;;;42.67;37.67;23.30;59.10;;;;;;4998611;28;8821;-76
2022/05/31 06:51:06;;;;;;;;;45.67;39.33;23.00;59.10;;;;;;4998437;28;8775;-74
2022/05/31 06:59:01;;;;;;;;;39.00;35.33;22.80;61.10;;;;;;4998440;28;8881;-76
2022/05/31 07:01:37;;;;;;;;;49.00;42.67;22.70;61.30;;;;;;4998639;28;8857;-74
2022/05/31 07:04:03;;;;;;;;;48.67;42.00;22.90;61.60;;;;;;4997944;28;8849;-76
2022/05/31 07:06:32;;;;;;;;;45.00;40.00;23.10;61.00;;;;;;5013430;28;8798;-75
2022/05/31 07:08:57;;;;;;;;;45.33;38.67;22.80;60.50;;;;;;4998086;28;9502;-75
2022/05/31 07:11:23;;;;;;;;;45.33;40.00;22.80;61.40;;;;;;4998301;28;8783;-77
2022/05/31 07:13:49;;;;;;;;;41.00;36.33;23.00;61.50;;;;;;4997945;28;8894;-75
2022/05/31 07:16:15;;;;;;;;;42.00;37.33;23.10;61.30;;;;;;4998356;28;9492;-75
2022/05/31 07:18:42;;;;;;;;;45.33;40.67;23.00;61.30;;;;;;4998275;28;8813;-75
2022/05/31 07:21:08;;;;;;;;;49.67;42.00;23.10;61.70;;;;;;5013302;28;8909;-76
2022/05/31 07:23:34;;;;;;;;;41.67;37.67;23.00;61.30;;;;;;4997998;28;8775;-75
2022/05/31 07:26:00;;;;;;;;;46.00;40.33;22.80;62.00;;;;;;4998202;28;8794;-75
2022/05/31 07:28:28;;;;;;;;;47.00;40.00;23.00;61.50;;;;;;4997968;28;8782;-75
2022/05/31 07:30:55;;;;;;;;;46.00;40.67;22.90;61.20;;;;;;4997996;28;8785;-75
2022/05/31 07:33:21;;;;;;;;;43.33;37.67;22.90;62.20;;;;;;4997796;28;9555;-75
2022/05/31 07:35:49;;;;;;;;;46.33;40.67;22.80;62.10;;;;;;4997639;28;8861;-76
2022/05/31 07:38:23;;;;;;;;;47.33;41.33;22.80;62.40;;;;;;4997665;28;8798;-75
2022/05/31 07:40:49;;;;;;;;;46.33;41.00;22.90;62.20;;;;;;4997836;28;8790;-74
2022/05/31 07:43:15;;;;;;;;;45.33;40.67;23.00;62.20;;;;;;4997818;28;8798;-74
2022/05/31 07:45:41;;;;;;;;;45.67;40.33;23.10;62.30;;;;;;4997391;28;8819;-75
2022/05/31 07:48:07;;;;;;;;;46.00;40.33;23.00;62.20;;;;;;4997488;28;8767;-74
2022/05/31 07:50:34;;;;;;;;;51.67;44.33;23.10;62.30;;;;;;4997368;28;8790;-75
2022/05/31 07:53:01;;;;;;;;;53.67;45.00;23.10;62.70;;;;;;4997020;28;8853;-75
2022/05/31 07:55:28;;;;;;;;;53.33;45.67;23.00;63.00;;;;;;4997336;28;8779;-75
2022/05/31 08:00:40;;;;;;;;;41.00;37.67;22.90;63.60;;;;;;4997335;28;8758;-75
2022/05/31 08:03:08;;;;;;;;;53.67;45.67;22.90;63.70;;;;;;4997593;28;8857;-76
2022/05/31 08:05:37;;;;;;;;;48.33;42.00;22.90;63.50;;;;;;4997228;28;8811;-75
2022/05/31 08:08:03;;;;;;;;;44.33;39.33;22.80;64.70;;;;;;4997255;28;9456;-75
2022/05/31 08:10:29;;;;;;;;;49.00;42.00;22.20;66.30;;;;;;4997502;28;8755;-75
2022/05/31 08:12:55;;;;;;;;;47.00;41.33;22.00;68.90;;;;;;4996785;28;8838;-76
2022/05/31 08:15:21;;;;;;;;;51.67;44.33;21.50;71.40;;;;;;4997231;28;8808;-75
2022/05/31 08:17:47;;;;;;;;;54.33;46.00;21.10;74.40;;;;;;4996882;28;8783;-75
2022/05/31 08:20:16;;;;;;;;;51.33;43.67;20.90;76.20;;;;;;4996930;28;8794;-75
2022/05/31 08:22:43;;;;;;;;;40.67;36.67;20.80;77.20;;;;;;5012091;28;8806;-77
2022/05/31 08:25:09;;;;;;;;;50.00;43.00;21.00;77.00;;;;;;4996499;28;8818;-75
2022/05/31 08:27:36;;;;;;;;;48.33;42.00;21.20;75.60;;;;;;4996867;28;8770;-78
2022/05/31 08:30:03;;;;;;;;;52.33;45.00;21.50;74.00;;;;;;4996605;28;8790;-75
2022/05/31 08:32:31;;;;;;;;;47.33;40.67;21.80;71.70;;;;;;5011983;28;8790;-75
2022/05/31 08:34:57;;;;;;;;;51.00;44.00;22.00;69.30;;;;;;4996330;28;8806;-75
2022/05/31 08:37:22;;;;;;;;;49.67;43.00;22.40;68.50;;;;;;4996567;28;8771;-76
2022/05/31 08:39:48;;;;;;;;;48.33;42.00;22.60;67.50;;;;;;4995519;28;8763;-77
2022/05/31 08:42:21;;;;;;;;;45.00;40.00;22.80;65.90;;;;;;4996648;28;9434;-77
2022/05/31 08:45:12;;;;;;;;;50.00;42.33;22.90;64.20;;;;;;4996591;28;8814;-77
2022/05/31 08:47:45;;;;;;;;;48.00;41.00;23.10;64.20;;;;;;4996308;28;8864;-76
2022/05/31 08:53:34;;;;;;;;;45.00;39.00;23.50;63.40;;;;;;4996194;28;9401;-76
2022/05/31 08:59:40;;;;;;;;;49.67;42.67;23.80;60.80;;;;;;4996034;28;8767;-74
2022/05/31 09:02:23;;;;;;;;;52.00;44.33;24.20;60.10;;;;;;4992550;28;9539;-75
2022/05/31 09:05:06;;;;;;;;;46.67;41.00;24.60;58.80;;;;;;4995193;28;8925;-75
2022/05/31 09:07:52;;;;;;;;;47.00;40.33;24.90;57.00;;;;;;4996140;28;8802;-77
2022/05/31 09:10:40;;;;;;;;;44.33;38.33;25.10;56.00;;;;;;4996231;28;9421;-78
2022/05/31 09:13:19;;;;;;;;;50.00;40.67;25.10;55.60;;;;;;4995594;28;8851;-77
2022/05/31 09:16:01;;;;;;;;;49.00;42.67;25.40;55.30;;;;;;4994318;28;8791;-77
2022/05/31 09:18:38;;;;;;;;;42.33;37.33;25.90;54.30;;;;;;4995374;28;8751;-77
2022/05/31 09:21:11;;;;;;;;;47.67;40.67;26.10;54.00;;;;;;4994671;28;9487;-83
2022/05/31 09:23:40;;;;;;;;;48.67;41.67;26.00;53.30;;;;;;4994475;28;8798;-78
2022/05/31 09:26:09;;;;;;;;;46.67;40.00;25.70;56.00;;;;;;4995859;28;8791;-81
2022/05/31 09:28:56;;;;;;;;;50.33;43.00;25.70;55.30;;;;;;4995487;28;8791;-76
2022/05/31 09:32:04;;;;;;;;;47.67;40.67;26.00;54.40;;;;;;4995492;28;8806;-76
2022/05/31 09:34:51;;;;;;;;;36.33;34.33;26.70;52.10;;;;;;4995545;28;8794;-77
2022/05/31 09:37:58;;;;;;;;;51.00;43.00;27.40;50.90;;;;;;4995554;28;9452;-76
2022/05/31 09:40:38;;;;;;;;;44.67;39.67;27.90;50.00;;;;;;4995196;28;8794;-76
2022/05/31 09:43:41;;;;;;;;;44.00;38.67;27.20;49.40;;;;;;4995177;28;8815;-75
2022/05/31 09:46:09;;;;;;;;;42.00;37.33;27.00;51.30;;;;;;4995375;28;8818;-76
2022/05/31 09:48:56;;;;;;;;;43.00;38.00;27.00;51.10;;;;;;4995459;28;8811;-77
2022/05/31 09:51:37;;;;;;;;;44.67;39.00;27.30;50.70;;;;;;4995090;28;8775;-78
2022/05/31 09:57:07;;;;;;;;;40.33;36.67;28.20;48.10;;;;;;4995137;28;8754;-75
2022/05/31 09:59:43;;;;;;;;;40.67;36.67;28.50;47.20;;;;;;4995286;28;8791;-75
2022/05/31 10:02:35;;;;;;;;;40.33;36.33;28.70;47.50;;;;;;4994866;28;8763;-75
2022/05/31 10:05:21;;;;;;;;;36.00;33.67;28.30;48.00;;;;;;4990288;28;8943;-75
2022/05/31 10:07:48;;;;;;;;;35.33;33.00;27.90;48.10;;;;;;4995049;28;8779;-75
2022/05/31 10:10:25;;;;;;;;;35.33;33.67;27.80;49.00;;;;;;4994933;28;8771;-74
2022/05/31 10:12:55;;;;;;;;;31.00;31.00;27.50;48.10;;;;;;4994810;28;8827;-76
2022/05/31 10:15:49;;;;;;;;;31.67;31.00;27.50;49.00;;;;;;4994528;28;8900;-75
2022/05/31 10:18:31;;;;;;;;;26.67;26.67;27.90;49.40;;;;;;4995167;28;8881;-76
2022/05/31 10:20:59;;;;;;;;;40.00;36.33;27.40;48.80;;;;;;4994987;28;9511;-78
2022/05/31 10:23:34;;;;;;;;;37.67;34.00;27.20;50.70;;;;;;4994618;28;8763;-77
2022/05/31 10:26:01;;;;;;;;;35.00;33.00;27.30;50.70;;;;;;4994964;28;8802;-76
2022/05/31 10:28:35;;;;;;;;;37.67;34.67;27.90;50.60;;;;;;4994743;28;8775;-77
2022/05/31 10:31:25;;;;;;;;;39.33;35.00;28.50;49.40;;;;;;4994637;28;8874;-76
2022/05/31 10:33:57;;;;;;;;;39.67;36.33;28.80;48.30;;;;;;4994557;28;8809;-78
2022/05/31 10:36:26;;;;;;;;;34.67;33.33;29.10;46.40;;;;;;4994858;28;8783;-78
2022/05/31 10:38:53;;;;;;;;;35.00;32.67;29.00;46.00;;;;;;4994960;28;8802;-82
2022/05/31 10:41:25;;;;;;;;;36.67;33.67;28.80;47.10;;;;;;4994602;28;8897;-76
2022/05/31 10:43:59;;;;;;;;;30.67;30.67;28.70;47.70;;;;;;4994792;28;8775;-82
2022/05/31 10:46:29;;;;;;;;;28.67;28.67;28.90;46.50;;;;;;4994572;28;8759;-77
2022/05/31 10:49:18;;;;;;;;;37.67;34.67;29.20;45.50;;;;;;4994895;28;8785;-77
2022/05/31 10:52:09;;;;;;;;;35.00;32.67;29.40;45.80;;;;;;4994739;28;8771;-76
2022/05/31 10:55:03;;;;;;;;;30.33;30.00;29.00;47.30;;;;;;4994488;28;8818;-79
2022/05/31 10:58:02;;;;;;;;;32.67;31.33;29.20;46.50;;;;;;4991069;28;9515;-80
2022/05/31 11:00:44;;;;;;;;;25.33;25.33;29.40;45.10;;;;;;4984171;28;8990;-80
2022/05/31 11:03:38;;;;;;;;;32.67;31.33;29.90;45.10;;;;;;4974438;28;8797;-80
2022/05/31 11:06:22;;;;;;;;;29.67;29.67;30.20;44.80;;;;;;4974142;28;8809;-77
2022/05/31 11:12:56;;;;;;;;;26.00;26.00;30.00;44.00;;;;;;4958524;28;8846;-78
2022/05/31 11:15:28;;;;;;;;;23.00;23.00;30.10;43.80;;;;;;4960708;28;9482;-78
2022/05/31 11:18:12;;;;;;;;;34.00;32.33;30.40;43.00;;;;;;4963787;28;8990;-78
2022/05/31 11:20:59;;;;;;;;;32.67;31.67;30.40;43.50;;;;;;4951206;28;8795;-79
2022/05/31 11:23:28;;;;;;;;;36.33;34.00;30.60;43.60;;;;;;4965095;28;8894;-78
2022/05/31 11:25:59;;;;;;;;;36.67;33.67;30.70;42.70;;;;;;4967040;28;8822;-78
2022/05/31 11:28:37;;;;;;;;;23.67;23.67;30.90;43.30;;;;;;4964898;28;8803;-77
2022/05/31 11:31:30;;;;;;;;;36.67;33.67;31.30;41.10;;;;;;4976324;28;8785;-75
2022/05/31 11:34:37;;;;;;;;;30.67;30.00;31.50;41.70;;;;;;4975965;28;8955;-75
2022/05/31 11:37:12;;;;;;;;;33.00;32.00;31.70;41.10;;;;;;4937529;29;8789;-76
2022/05/31 11:40:04;;;;;;;;;27.67;27.67;31.60;41.30;;;;;;4964142;28;8828;-76
2022/05/31 11:42:48;;;;;;;;;31.00;30.33;32.10;40.50;;;;;;4975042;28;8953;-75
2022/05/31 11:45:44;;;;;;;;;27.00;27.00;32.20;39.80;;;;;;4997302;28;8834;-77
2022/05/31 11:48:32;;;;;;;;;28.00;28.00;32.30;40.40;;;;;;4994784;28;11580;-75
2022/05/31 11:51:08;;;;;;;;;29.33;29.33;32.40;39.00;;;;;;4989037;28;11553;-74
2022/05/31 11:53:54;;;;;;;;;30.00;29.67;32.60;39.30;;;;;;4990236;28;11556;-78
2022/05/31 11:56:26;;;;;;;;;29.33;29.33;31.90;40.90;;;;;;4987267;28;8815;-79
2022/05/31 11:59:07;;;;;;;;;27.00;27.00;33.00;39.20;;;;;;4983873;28;12246;-79
2022/05/31 12:01:48;;;;;;;;;24.50;24.50;38.20;33.80;;;;;;4982341;28;11570;-78
2022/05/31 12:04:19;;;;;;;;;26.33;26.33;40.20;28.80;;;;;;4977451;28;11676;-77
2022/05/31 12:06:56;;;;;;;;;27.00;27.00;38.50;29.20;;;;;;4987923;28;11565;-76
2022/05/31 12:09:35;;;;;;;;;19.50;19.50;37.30;30.20;;;;;;4977554;28;11553;-76
2022/05/31 12:12:07;;;;;;;;;24.75;24.75;35.10;33.40;;;;;;4979821;28;12309;-77
2022/05/31 12:14:39;;;;;;;;;25.00;25.00;34.60;34.60;;;;;;4985965;28;11607;-76
2022/05/31 12:17:06;;;;;;;;;25.00;25.00;34.60;35.40;;;;;;4981530;28;11591;-75
2022/05/31 12:19:50;;;;;;;;;22.00;22.00;34.10;35.10;;;;;;4986000;28;11597;-75
2022/05/31 12:22:32;;;;;;;;;26.75;26.75;34.10;36.20;;;;;;4989165;28;11542;-75
2022/05/31 12:25:20;;;;;;;;;17.50;17.50;34.20;36.10;;;;;;4992138;28;11698;-75
2022/05/31 12:27:56;;;;;;;;;21.75;21.75;33.40;36.30;;;;;;4995065;28;11502;-74
2022/05/31 12:30:31;;;;;;;;;20.50;20.50;33.00;36.90;;;;;;4995268;28;11535;-75
2022/05/31 12:32:58;;;;;;;;;21.25;21.25;33.50;38.30;;;;;;4992032;28;11627;-79
2022/05/31 12:35:30;;;;;;;;;20.50;20.50;33.50;37.00;;;;;;4994931;28;11529;-76
2022/05/31 12:38:02;;;;;;;;;20.25;20.25;33.50;37.30;;;;;;4993054;28;11545;-75
2022/05/31 12:40:33;;;;;;;;;17.50;17.50;33.40;37.00;;;;;;4994152;28;11557;-75
2022/05/31 12:43:06;;;;;;;;;20.00;20.00;33.00;37.10;;;;;;4990950;28;11588;-76
2022/05/31 12:45:34;;;;;;;;;15.50;15.50;32.80;37.20;;;;;;4992467;28;12246;-75
2022/05/31 12:48:10;;;;;;;;;16.75;16.75;32.70;37.70;;;;;;4994893;28;11638;-82
2022/05/31 12:51:09;;;;;;;;;16.75;16.75;32.50;36.80;;;;;;4993192;28;11517;-75
2022/05/31 12:53:37;;;;;;;;;15.50;15.50;32.70;37.30;;;;;;4992761;28;11517;-75
2022/05/31 12:56:06;;;;;;;;;15.25;15.25;32.90;36.90;;;;;;4993777;28;11557;-72
2022/05/31 12:58:43;;;;;;;;;12.00;12.00;33.00;35.20;;;;;;4992601;28;11556;-74
2022/05/31 13:01:13;;;;;;;;;16.00;16.00;33.10;35.20;;;;;;4991033;28;11563;-75
2022/05/31 13:03:51;;;;;;;;;16.25;16.00;33.30;35.90;;;;;;4994797;28;11541;-79
2022/05/31 13:06:22;;;;;;;;;17.50;17.50;33.00;38.60;;;;;;4992832;28;11596;-77
2022/05/31 13:08:56;;;;;;;;;17.25;17.25;33.30;38.00;;;;;;4994219;28;11743;-77
2022/05/31 13:20:25;;;;;;;;;19.25;19.25;33.60;36.40;;;;;;4995357;28;11512;-76
2022/05/31 13:23:18;;;;;;;;;15.00;15.00;33.00;38.00;;;;;;4988034;28;11539;-79
2022/05/31 13:25:49;;;;;;;;;15.50;15.50;32.70;38.30;;;;;;4991104;28;11567;-74
2022/05/31 13:28:50;;;;;;;;;17.75;17.75;32.80;38.00;;;;;;4994370;28;11548;-72
2022/05/31 13:31:22;;;;;;;;;15.25;15.25;33.00;37.90;;;;;;5004554;28;12195;-72
2022/05/31 13:34:04;;;;;;;;;16.75;16.75;32.70;38.40;;;;;;4994156;28;11663;-74